默认 日期 大小 文件数 浏览量 最新下载 xml
ddr-磁力链接相关资源由用户搜索指令自动获取,结果来源于网络,本站不存储任何资料,亦不承担任何责任,请于24小时内删除,搜索到11221个磁力,显示前4000条数据,用时4ms。
    {"Jogajog (2015) 720p x264 AC3 ESub SAP [DDR-ExclusivE].mp4": 3251377542}
创建时间: 2018-12-17 02:04:04 大小:3.03 GB 文件数量:1 热度:11 最近下载:2025-09-19 07:12:06
    ... 11.png": 224036}, "A DDR Release !!.txt": 287, "OUATIMD ... - x264 - 720p - AC3 - [DDR].gif": 39426, "OUATIMD (2013) - ... DVDRip - x264 - 720p - AC3 - [DDR].mkv": 3218679025, "OUATIMD (2013) - ... DVDRip - x264 - 720p - AC3 - [DDR].nfo": 9703, "OUATIMD (Sample) - ...
创建时间: 2018-12-17 02:23:53 大小:3.03 GB 文件数量:16 热度:8 最近下载:2025-08-29 17:33:03
    {"Bulleya.mp3": 14058723, "Bulleya.mp4": 14346311}
创建时间: 2018-12-17 02:35:00 大小:27.09 MB 文件数量:2 热度:7 最近下载:2022-04-23 05:52:31
    ... ~ Audiobiography (2 CDs) - [DDR].sfv": 992, "[DDR] Audiobiography - 05 - Koi Roko ... ~ Audiobiography (2 CDs) - [DDR].m3u": 834, "[DDR] Audiobiography - 01 - Om Shanti ... Kumar ~ Audiobiography (2 CDs) - [DDR].sfv": 1036, "[DDR] Audiobiography - 09 - Hum Bewafa ...
创建时间: 2018-12-17 03:00:30 大小:676.79 MB 文件数量:48 热度:7 最近下载:2025-01-22 03:56:03
    ... ) (Sample) - 720p - HDRip - x264 - AC3 [DDR].mkv": 52162594}, "Screens": {"1.png ... (2016) - 720p - HDRip - x264 - AC3 [DDR].mkv": 3573343276, "! Torrent Exclusively for ...
创建时间: 2018-12-17 03:23:23 大小:3.39 GB 文件数量:19 热度:5 最近下载:2022-04-23 05:59:58
    {"The.Ghazi.Attack.2017.1080p.WEB-DL.H263.DD5.1.ESub-DDR.mp4": 6389116360, "The.Ghazi.Attack.2017.1080p.WEB-DL.H263.DD5.1.ESub-DDR.srt": 83193}
创建时间: 2018-12-17 03:26:29 大小:5.95 GB 文件数量:2 热度:15 最近下载:2025-08-03 04:05:02
    {"A DDR Exclusive Release.txt": 28, "Baahubali (2015) x264 DvDrip AC3 5.1 ESub [DDR].mkv": 1571472827, "(sample) Baahubali (2015) x264 DvDrip AC3 5.1 ESub [DDR].mkv": 13507463}
创建时间: 2018-12-17 05:13:27 大小:1.48 GB 文件数量:3 热度:8 最近下载:2022-04-23 06:43:00
    ... DVDRip - x264 - AC3 - ESub - [DDR].mkv": 3003997036, "Commando 2 (2017 ... DVDRip - x264 - AC3 - ESub - [DDR].nfo": 9706, "Commando 2 (2017 ... DVDRip - x264 - AC3 - ESub - [DDR].srt": 94228, "(Sample) Commando 2 ... DVDRip - x264 - AC3 - ESub - [DDR].mkv": 22572634}
创建时间: 2018-12-17 05:36:43 大小:2.82 GB 文件数量:6 热度:7 最近下载:2025-03-16 16:53:03
    {"VIDEO_TS.BUP": 14336, "VIDEO_TS.IFO": 14336, "VIDEO_TS.VOB": 43008, "VTS_01_0.BUP": 71680, "VTS_01_0.IFO": 71680, "VTS_01_0.VOB": 2371584, "VTS_01_1.VOB": 1073565696, "VTS_01_2.VOB": 1073565696, "VTS_01_3.VOB": 1073565696, "VTS_01_4.VOB": 563539968}
创建时间: 2018-12-17 05:58:23 大小:3.53 GB 文件数量:10 热度:8 最近下载:2025-01-20 17:01:46
    {"VIDEO_TS.BUP": 10240, "VIDEO_TS.IFO": 10240, "VTS_01_0.BUP": 20480, "VTS_01_0.IFO": 20480, "VTS_01_0.VOB": 141312, "VTS_01_1.VOB": 8904704, "VTS_02_0.BUP": 63488, "VTS_02_0.IFO": 63488, "VTS_02_0.VOB": 116736, "VTS_02_1.VOB": 1073739776, "VTS_02_2.VOB": ...
创建时间: 2018-12-17 06:29:57 大小:4.14 GB 文件数量:14 热度:13 最近下载:2025-08-06 17:05:04
    {"Stand Up and Cheer (1934) Xvid 1cd - Shirley Temple Film [DDR].avi": 735830016}
创建时间: 2018-12-17 07:26:37 大小:701.74 MB 文件数量:1 热度:11 最近下载:2025-09-15 15:37:13
    {"Readme.txt": 83, "Inside Edge 2017 HINDI DesiPDVD 1CDRIP x264 AAC [DDR].avi": 792132544}
创建时间: 2018-12-17 08:21:05 大小:755.44 MB 文件数量:2 热度:17 最近下载:2025-02-22 21:02:01
    {"VIDEO_TS.BUP": 10240, "VIDEO_TS.IFO": 10240, "VTS_01_0.BUP": 20480, "VTS_01_0.IFO": 20480, "VTS_01_0.VOB": 81920, "VTS_01_1.VOB": 8904704, "VTS_02_0.BUP": 79872, "VTS_02_0.IFO": 79872, "VTS_02_0.VOB": 8192, "VTS_02_1.VOB": 1073739776, "VTS_02_2.VOB": ...
创建时间: 2018-12-17 08:26:02 大小:3.92 GB 文件数量:13 热度:13 最近下载:2025-05-06 08:02:00
    {"VIDEO_TS.BUP": 22528, "VIDEO_TS.IFO": 22528, "VIDEO_TS.VOB": 382976, "VTS_01_0.BUP": 81920, "VTS_01_0.IFO": 81920, "VTS_01_0.VOB": 2117632, "VTS_01_1.VOB": 1073739776, "VTS_01_2.VOB": 1073739776, "VTS_01_3.VOB": 1073739776, "VTS_01_4.VOB": 1073739776, " ...
创建时间: 2018-12-17 08:52:47 大小:5.66 GB 文件数量:39 热度:17 最近下载:2025-01-13 10:47:06
    ... (2014) - DVDRip - XviD - AC3 [DDR-ExclusivE].avi": 12615680}, "Khoobsurat (2014 ... ) - DVDRip - XviD - AC3 [DDR-ExclusivE].avi": 1571444804, "Khoobsurat (2014 ... ) - DVDRip - XviD - AC3 [DDR-ExclusivE].nfo": 9701, "Khoobsurat (2014 ...
创建时间: 2018-12-17 09:43:09 大小:1.48 GB 文件数量:4 热度:8 最近下载:2022-04-23 05:59:09
    ... -Sp - Tyronne Power, Orson Welles [DDR].avi": 1468864512, "Prince of Foxes ... -Sp - Tyronne Power, Orson Welles [DDR].idx": 162829, "Prince of Foxes ... -Sp - Tyronne Power, Orson Welles [DDR].sub": 10739712}
创建时间: 2018-12-17 11:06:38 大小:1.43 GB 文件数量:5 热度:7 最近下载:2024-12-27 09:18:01
    {"A DDR Release !!.txt": 287, "Star Wars Episode V 1980 MULTI HQ 1080p Blu-Ray x264 AC3 5.1 MSubs -DDR.mkv": 16141544454, "sample-Star Wars Episode V 1980 MULTI HQ 1080p Blu-Ray x264 AC3 5.1 MSubs -DDR.mkv": 170795101}
创建时间: 2018-12-17 11:44:13 大小:15.19 GB 文件数量:3 热度:15 最近下载:2025-02-22 06:37:05
    ... -Ray - 720p - DVD5 - x264 - [DDR].mkv": 4692341341, "Darr - Blu-Ray ... - 720p - x264 - DVD5 - [DDR].gif": 37966, "Darr - Blu-Ray ... - 720p - x264 - DVD5 - [DDR].nfo": 9705, "Darr (Screens) - Blu ... -Ray - 720p - DVD5 - x264 - [DDR]": {"1.png": 1053231, "2.png ...
创建时间: 2018-12-17 11:47:18 大小:4.4 GB 文件数量:15 热度:8 最近下载:2025-03-17 18:29:01
    {"Udta Punjab 2016 720p DVDRip x264 AC3 DDR.mkv": 3220738520, "Udta Punjab 2016 720p DVDRip x264 AC3 DDR.nfo": 9704, "Udta Punjab 2016 720p DVDRip x264 AC3 DDR.srt": 81011}
创建时间: 2018-12-17 11:53:48 大小:3 GB 文件数量:3 热度:7 最近下载:2024-12-25 09:30:02
    {"A DDR Exclusive Release.txt": 57, "Ek Paheli Leela (2015) - 720p - x264 - AC3 - ESub [DDR-ExclusivE].mkv": 3738224090, "(sample) Ek Paheli Leela (2015) - 720p - x264 - AC3 - ESub [DDR-ExclusivE].mkv": 16864957}
创建时间: 2018-12-17 12:12:43 大小:3.5 GB 文件数量:3 热度:10 最近下载:2025-02-28 08:28:05